aviador You're here:

SBGL Decoded Metar

RIO DE JANEIRO in BRAZIL
Report Time2018-02-22 05:00:00
UTC Time2018-02-22 06:22:53
Flight Rules Old
Wind120° at 05 kt
W.Decomp.*RWY 15: 4.9 kt HW 0.8 kt LCW
RWY 10: 3.8 kt HW 3.3 kt RCW
W.Rank120° ranks 3
Current wind is below 120° avg. (6.7)
Visibility3000 m
Phenomena:Light Thuderstorm Rain
Mist
Clouds:Few 004 Hf
Broken 008 Hf
Broken 020 Hf
Few CB 030 Hf
Expected CloudBase > 800 ft AGL from Temp-Dew spread
Ceiling800 ft
Temp25°C (ISA +10)
Dew Point23°C (89% RH)
QNH1008 hPa
Density Alt1,719 ft
Elevation20 ft
Report Wrong Elevation
Raw Report
METAR SBGL 220500Z 12005KT 3000 -TSRA BR FEW004 BKN008 BKN020 FEW030CB 25/23 Q1008=

Extra information for SBGL:More info

Metar Taf Metar & Taf Last 4 Metars F.Rules Stats Wind Profile Meteogram Temp Stats Airport Information Weather charts Add Link Nearby VenuesMetar ALERT Operation Metar Decoded Social comments